createdAt,value
2023-10-29T00:00:05.796Z,12.10
2023-10-29T00:02:53.957Z,12.10
2023-10-29T00:05:42.608Z,12.10
2023-10-29T00:08:30.673Z,12.10
2023-10-29T00:11:18.978Z,12.10
2023-10-29T00:14:08.818Z,12.10
2023-10-29T00:16:57.190Z,12.10
2023-10-29T00:19:45.330Z,12.10
2023-10-29T00:22:33.468Z,12.20
2023-10-29T00:25:21.797Z,12.10
2023-10-29T00:28:12.617Z,12.10
2023-10-29T00:31:02.009Z,12.10
2023-10-29T00:33:50.107Z,12.10
2023-10-29T00:36:38.201Z,12.10
2023-10-29T00:39:26.283Z,12.10
2023-10-29T00:42:14.400Z,12.10
2023-10-29T00:45:02.467Z,12.10
2023-10-29T00:47:54.306Z,12.10
2023-10-29T00:50:42.446Z,12.10
2023-10-29T00:53:30.972Z,12.50
2023-10-29T00:56:19.921Z,12.30
2023-10-29T00:59:08.442Z,12.20
2023-10-29T01:01:57.135Z,12.20
2023-10-29T01:04:47.440Z,12.20
2023-10-29T01:07:35.848Z,12.20
2023-10-29T01:10:23.857Z,12.20
2023-10-29T01:13:11.925Z,12.20
2023-10-29T01:16:00.119Z,12.20
2023-10-29T01:18:48.377Z,12.10
2023-10-29T01:21:37.907Z,12.10
2023-10-29T01:24:25.941Z,12.10
2023-10-29T01:27:13.952Z,12.10
2023-10-29T01:30:02.085Z,12.10
2023-10-29T01:32:50.209Z,12.10
2023-10-29T01:35:38.231Z,12.20
2023-10-29T01:38:27.707Z,12.10
2023-10-29T01:41:15.872Z,12.10
2023-10-29T01:44:03.924Z,12.10
2023-10-29T01:46:52.060Z,12.10
2023-10-29T01:49:40.187Z,12.20
2023-10-29T01:52:28.251Z,12.20
2023-10-29T01:55:17.840Z,12.10
2023-10-29T01:58:06.232Z,12.10
2023-10-29T02:00:56.462Z,12.10
2023-10-29T02:03:44.860Z,12.10
2023-10-29T02:06:39.246Z,12.10
2023-10-29T02:09:27.329Z,12.10
2023-10-29T02:12:17.005Z,12.10
2023-10-29T02:15:06.850Z,12.10
2023-10-29T02:17:54.960Z,12.10
2023-10-29T02:20:43.153Z,12.10
2023-10-29T02:23:32.694Z,12.10
2023-10-29T02:26:21.211Z,12.20
2023-10-29T02:29:09.297Z,12.10
2023-10-29T02:31:57.321Z,12.10
2023-10-29T02:34:45.486Z,12.10
2023-10-29T02:37:34.063Z,12.10
2023-10-29T02:40:23.478Z,12.10
2023-10-29T02:43:12.137Z,12.10
2023-10-29T02:46:00.210Z,12.10
2023-10-29T02:48:48.294Z,12.10
2023-10-29T02:51:36.330Z,12.10
2023-10-29T02:54:24.400Z,12.40
2023-10-29T02:57:14.630Z,12.30
2023-10-29T03:00:02.888Z,12.20
2023-10-29T03:02:51.069Z,12.20
2023-10-29T03:05:53.769Z,12.20
2023-10-29T03:08:42.248Z,12.20
2023-10-29T03:11:30.441Z,12.20
2023-10-29T03:14:19.925Z,12.20
2023-10-29T03:17:08.004Z,12.20
2023-10-29T03:19:56.389Z,12.10
2023-10-29T03:22:44.649Z,12.10
2023-10-29T03:25:32.860Z,12.10
2023-10-29T03:28:20.934Z,12.10
2023-10-29T03:31:14.813Z,12.10
2023-10-29T03:34:02.863Z,12.10
2023-10-29T03:36:50.891Z,12.10
2023-10-29T03:39:38.925Z,12.10
2023-10-29T03:42:26.999Z,12.10
2023-10-29T03:45:15.447Z,12.10
2023-10-29T03:48:05.395Z,12.00
2023-10-29T03:50:54.664Z,12.00
2023-10-29T03:53:42.942Z,12.00
2023-10-29T03:56:31.079Z,12.00
2023-10-29T03:59:19.129Z,12.10
2023-10-29T04:02:07.250Z,12.10
2023-10-29T04:05:06.139Z,12.10
2023-10-29T04:07:56.792Z,12.00
2023-10-29T04:10:44.904Z,12.00
2023-10-29T04:13:33.284Z,12.00
2023-10-29T04:16:21.418Z,12.00
2023-10-29T04:19:09.551Z,12.00
2023-10-29T04:21:58.946Z,12.00
2023-10-29T04:24:47.333Z,12.00
2023-10-29T04:27:35.455Z,12.00
2023-10-29T04:30:23.510Z,12.00
2023-10-29T04:33:11.615Z,12.00
2023-10-29T04:35:59.723Z,12.00
2023-10-29T04:38:49.200Z,12.00
2023-10-29T04:41:38.289Z,12.00
2023-10-29T04:44:27.632Z,12.00
2023-10-29T04:47:16.922Z,12.00
2023-10-29T04:50:06.217Z,12.00
2023-10-29T04:52:54.221Z,12.10
2023-10-29T04:55:43.728Z,12.40
2023-10-29T04:58:32.892Z,12.30
2023-10-29T05:01:21.106Z,12.20
2023-10-29T05:04:09.237Z,12.10
2023-10-29T05:06:57.482Z,12.10
2023-10-29T05:09:45.688Z,12.10
2023-10-29T05:12:35.110Z,12.10
2023-10-29T05:15:23.116Z,12.00
2023-10-29T05:18:11.195Z,12.00
2023-10-29T05:21:00.844Z,12.10
2023-10-29T05:23:50.982Z,12.00
2023-10-29T05:26:39.146Z,12.00
2023-10-29T05:29:29.261Z,12.00
2023-10-29T05:32:17.311Z,12.00
2023-10-29T05:35:06.554Z,12.00
2023-10-29T05:37:54.704Z,12.00
2023-10-29T05:40:43.404Z,12.00
2023-10-29T05:43:31.424Z,12.00
2023-10-29T05:46:23.605Z,12.00
2023-10-29T05:49:11.821Z,12.00
2023-10-29T05:52:00.032Z,12.00
2023-10-29T05:54:48.273Z,12.10
2023-10-29T05:57:36.571Z,12.10
2023-10-29T06:00:24.701Z,12.10
2023-10-29T06:03:14.146Z,12.10
2023-10-29T06:06:02.488Z,12.10
2023-10-29T06:08:50.866Z,12.10
2023-10-29T06:11:42.330Z,12.10
2023-10-29T06:14:30.446Z,12.10
2023-10-29T06:17:26.674Z,12.10
2023-10-29T06:20:18.661Z,12.10
2023-10-29T06:23:06.689Z,12.10
2023-10-29T06:25:54.762Z,12.00
2023-10-29T06:28:42.968Z,12.00
2023-10-29T06:31:31.433Z,12.00
2023-10-29T06:34:19.662Z,12.00
2023-10-29T06:37:09.307Z,12.00
2023-10-29T06:39:57.398Z,12.00
2023-10-29T06:42:45.447Z,12.00
2023-10-29T06:45:33.508Z,12.10
2023-10-29T06:48:21.676Z,12.10
2023-10-29T06:51:10.509Z,12.00
2023-10-29T06:53:59.938Z,12.20
2023-10-29T06:56:48.424Z,12.30
2023-10-29T06:59:36.607Z,12.20
2023-10-29T07:02:24.802Z,12.20
2023-10-29T07:05:13.011Z,12.20
2023-10-29T07:08:01.756Z,12.20
2023-10-29T07:10:51.173Z,12.20
2023-10-29T07:13:39.413Z,12.20
2023-10-29T07:16:27.461Z,12.20
2023-10-29T07:19:18.067Z,12.20
2023-10-29T07:22:06.326Z,12.20
2023-10-29T07:24:54.488Z,12.20
2023-10-29T07:27:43.880Z,12.20
2023-10-29T07:30:32.583Z,12.20
2023-10-29T07:33:20.813Z,12.20
2023-10-29T07:36:09.663Z,12.20
2023-10-29T07:38:58.207Z,12.20
2023-10-29T07:41:46.381Z,12.20
2023-10-29T07:44:35.880Z,12.20
2023-10-29T07:47:23.935Z,12.20
2023-10-29T07:50:12.519Z,12.20
2023-10-29T07:53:00.649Z,12.30
2023-10-29T07:55:48.763Z,12.10
2023-10-29T07:58:37.551Z,12.30
2023-10-29T08:01:27.133Z,12.30
2023-10-29T08:04:15.273Z,12.40
2023-10-29T08:07:05.228Z,12.40
2023-10-29T08:09:53.403Z,12.40
2023-10-29T08:12:41.488Z,12.40
2023-10-29T08:15:29.558Z,12.40
2023-10-29T08:18:19.009Z,12.40
2023-10-29T08:21:07.537Z,12.40
2023-10-29T08:23:55.843Z,12.50
2023-10-29T08:26:44.039Z,12.50
2023-10-29T08:29:32.725Z,12.50
2023-10-29T08:32:21.362Z,12.50
2023-10-29T08:35:11.037Z,12.50
2023-10-29T08:37:59.230Z,12.60
2023-10-29T08:40:47.531Z,12.60
2023-10-29T08:43:35.720Z,12.60
2023-10-29T08:46:23.905Z,12.60
2023-10-29T08:49:11.160Z,12.60
2023-10-29T08:52:00.746Z,12.70
2023-10-29T08:54:49.650Z,12.70
2023-10-29T08:57:38.021Z,12.70
2023-10-29T09:00:32.524Z,12.70
2023-10-29T09:03:28.392Z,12.70
2023-10-29T09:06:16.836Z,13.10
2023-10-29T09:09:07.475Z,13.00
2023-10-29T09:11:55.776Z,12.90
2023-10-29T09:14:44.106Z,12.80
2023-10-29T09:17:32.374Z,12.80
2023-10-29T09:20:21.058Z,12.80
2023-10-29T09:23:09.382Z,12.80
2023-10-29T09:26:00.499Z,12.70
2023-10-29T09:28:49.184Z,12.80
2023-10-29T09:31:37.697Z,12.80
2023-10-29T09:34:25.844Z,12.80
2023-10-29T09:37:14.605Z,12.90
2023-10-29T09:40:03.841Z,12.90
2023-10-29T09:42:55.434Z,12.90
2023-10-29T09:45:47.066Z,12.90
2023-10-29T09:48:36.453Z,13.00
2023-10-29T09:51:25.221Z,13.00
2023-10-29T09:54:14.427Z,13.00
2023-10-29T09:57:02.948Z,13.00
2023-10-29T09:59:52.443Z,13.00
2023-10-29T10:02:51.615Z,13.00
2023-10-29T10:05:43.417Z,13.10
2023-10-29T10:08:34.156Z,13.10
2023-10-29T10:11:23.666Z,13.10
2023-10-29T10:14:27.651Z,13.10
2023-10-29T10:17:17.610Z,13.10
2023-10-29T10:20:08.384Z,13.10
2023-10-29T10:23:00.759Z,13.10
2023-10-29T10:25:49.041Z,13.20
2023-10-29T10:28:37.203Z,13.20
2023-10-29T10:31:27.080Z,13.20
2023-10-29T10:34:19.018Z,13.20
2023-10-29T10:37:07.199Z,13.30
2023-10-29T10:39:55.846Z,13.30
2023-10-29T10:42:43.960Z,13.30
2023-10-29T10:45:35.135Z,13.40
2023-10-29T10:48:23.996Z,13.40
2023-10-29T10:51:15.100Z,13.30
2023-10-29T10:54:05.441Z,13.70
2023-10-29T10:56:55.541Z,13.60
2023-10-29T10:59:45.588Z,13.50
2023-10-29T11:02:35.660Z,13.50
2023-10-29T11:05:30.777Z,13.40
2023-10-29T11:08:21.566Z,13.40
2023-10-29T11:11:10.723Z,13.40
2023-10-29T11:14:15.532Z,13.40
2023-10-29T11:17:03.660Z,13.40
2023-10-29T11:19:51.887Z,13.40
2023-10-29T11:22:49.271Z,13.40
2023-10-29T11:25:38.999Z,13.50
2023-10-29T11:28:48.636Z,13.50
2023-10-29T11:31:36.831Z,13.50
2023-10-29T11:34:35.685Z,13.50
2023-10-29T11:37:40.364Z,13.50
2023-10-29T11:40:33.931Z,13.50
2023-10-29T11:43:24.089Z,13.50
2023-10-29T11:46:12.336Z,13.50
2023-10-29T11:49:06.987Z,13.60
2023-10-29T11:51:55.606Z,13.60
2023-10-29T11:54:44.082Z,13.60
2023-10-29T11:57:32.806Z,13.60
2023-10-29T12:00:23.744Z,13.60
2023-10-29T12:03:13.509Z,13.60
2023-10-29T12:06:01.740Z,13.60
2023-10-29T12:08:50.015Z,13.60
2023-10-29T12:11:38.062Z,13.50
2023-10-29T12:14:41.137Z,13.60
2023-10-29T12:17:30.828Z,13.60
2023-10-29T12:20:24.059Z,13.60
2023-10-29T12:23:12.368Z,13.60
2023-10-29T12:26:03.045Z,13.50
2023-10-29T12:28:52.267Z,13.60
2023-10-29T12:31:49.304Z,13.60
2023-10-29T12:34:49.667Z,13.60
2023-10-29T12:37:37.917Z,13.60
2023-10-29T12:40:27.165Z,13.60
2023-10-29T12:43:15.212Z,13.60
2023-10-29T12:46:03.407Z,13.50
2023-10-29T12:49:00.614Z,13.50
2023-10-29T12:51:54.108Z,13.50
2023-10-29T12:54:44.682Z,13.50
2023-10-29T12:57:32.731Z,13.50
2023-10-29T13:00:21.373Z,13.50
2023-10-29T13:03:09.633Z,13.50
2023-10-29T13:05:57.948Z,13.50
2023-10-29T13:08:47.704Z,13.50
2023-10-29T13:11:35.773Z,13.60
2023-10-29T13:14:24.357Z,13.50
2023-10-29T13:17:12.677Z,13.60
2023-10-29T13:20:01.032Z,13.50
2023-10-29T13:22:49.649Z,13.50
2023-10-29T13:25:39.594Z,13.50
2023-10-29T13:28:27.654Z,13.50
2023-10-29T13:31:15.745Z,13.50
2023-10-29T13:34:03.830Z,13.50
2023-10-29T13:36:51.922Z,13.50
2023-10-29T13:39:40.097Z,13.50
2023-10-29T13:42:29.479Z,13.50
2023-10-29T13:45:17.731Z,13.50
2023-10-29T13:48:08.156Z,13.60
2023-10-29T13:50:56.690Z,13.60
2023-10-29T13:53:45.163Z,13.60
2023-10-29T13:56:33.378Z,13.60
2023-10-29T13:59:23.746Z,13.50
2023-10-29T14:02:11.924Z,13.50
2023-10-29T14:05:00.388Z,13.50
2023-10-29T14:07:48.527Z,13.50
2023-10-29T14:10:36.941Z,13.80
2023-10-29T14:13:25.005Z,13.70
2023-10-29T14:16:16.190Z,13.70
2023-10-29T14:19:05.816Z,13.60
2023-10-29T14:21:55.939Z,13.60
2023-10-29T14:24:44.478Z,13.60
2023-10-29T14:27:33.055Z,13.60
2023-10-29T14:30:21.456Z,13.60
2023-10-29T14:33:11.226Z,13.60
2023-10-29T14:36:00.370Z,13.50
2023-10-29T14:38:49.129Z,13.50
2023-10-29T14:41:37.707Z,13.60
2023-10-29T14:44:26.136Z,13.60
2023-10-29T14:47:17.328Z,13.60
2023-10-29T14:50:09.934Z,13.50
2023-10-29T14:52:58.030Z,13.50
2023-10-29T14:55:47.381Z,13.50
2023-10-29T14:58:35.490Z,13.60
2023-10-29T15:01:25.828Z,13.70
2023-10-29T15:04:14.237Z,13.50
2023-10-29T15:07:04.342Z,13.60
2023-10-29T15:09:52.493Z,13.60
2023-10-29T15:12:40.533Z,13.60
2023-10-29T15:15:30.653Z,13.60
2023-10-29T15:18:19.419Z,13.60
2023-10-29T15:21:09.240Z,13.60
2023-10-29T15:23:59.337Z,13.60
2023-10-29T15:26:47.444Z,13.50
2023-10-29T15:29:36.552Z,13.50
2023-10-29T15:32:24.639Z,13.50
2023-10-29T15:35:12.843Z,13.50
2023-10-29T15:38:01.159Z,13.50
2023-10-29T15:40:50.590Z,13.50
2023-10-29T15:43:39.256Z,13.50
2023-10-29T15:46:28.320Z,13.60
2023-10-29T15:49:16.410Z,13.60
2023-10-29T15:52:05.633Z,13.60
2023-10-29T15:54:53.880Z,13.50
2023-10-29T15:57:43.264Z,13.50
2023-10-29T16:00:31.299Z,13.50
2023-10-29T16:03:19.501Z,13.50
2023-10-29T16:06:11.137Z,13.50
2023-10-29T16:08:59.302Z,13.40
2023-10-29T16:11:48.394Z,13.50
2023-10-29T16:14:38.236Z,13.40
2023-10-29T16:17:26.413Z,13.40
2023-10-29T16:20:14.537Z,13.40
2023-10-29T16:23:02.690Z,13.40
2023-10-29T16:25:50.750Z,13.30
2023-10-29T16:28:38.760Z,13.30
2023-10-29T16:31:28.492Z,13.30
2023-10-29T16:34:16.617Z,13.30
2023-10-29T16:37:05.289Z,13.30
2023-10-29T16:39:53.328Z,13.30
2023-10-29T16:42:41.499Z,13.30
2023-10-29T16:45:29.829Z,13.30
2023-10-29T16:48:19.484Z,13.30
2023-10-29T16:51:08.837Z,13.30
2023-10-29T16:53:56.953Z,13.30
2023-10-29T16:56:45.083Z,13.20
2023-10-29T16:59:33.115Z,13.20
2023-10-29T17:02:21.181Z,13.20
2023-10-29T17:05:10.946Z,13.20
2023-10-29T17:07:59.322Z,13.20
2023-10-29T17:10:47.422Z,13.30
2023-10-29T17:13:35.516Z,13.30
2023-10-29T17:16:23.568Z,13.20
2023-10-29T17:19:11.650Z,13.20
2023-10-29T17:22:01.074Z,13.20
2023-10-29T17:24:53.001Z,13.20
2023-10-29T17:27:41.074Z,13.20
2023-10-29T17:30:29.203Z,13.10
2023-10-29T17:33:17.414Z,13.10
2023-10-29T17:36:10.145Z,13.10
2023-10-29T17:38:59.792Z,13.00
2023-10-29T17:41:47.852Z,13.00
2023-10-29T17:44:35.901Z,13.10
2023-10-29T17:47:23.921Z,13.00
2023-10-29T17:50:13.238Z,13.00
2023-10-29T17:53:02.493Z,13.00
2023-10-29T17:55:53.744Z,13.00
2023-10-29T17:58:42.228Z,13.00
2023-10-29T18:01:30.625Z,13.00
2023-10-29T18:04:20.677Z,12.90
2023-10-29T18:07:08.944Z,12.90
2023-10-29T18:09:57.159Z,13.00
2023-10-29T18:12:46.645Z,12.90
2023-10-29T18:15:34.797Z,12.90
2023-10-29T18:18:23.102Z,12.90
2023-10-29T18:21:11.208Z,12.90
2023-10-29T18:23:59.322Z,12.90
2023-10-29T18:26:47.407Z,12.90
2023-10-29T18:29:36.779Z,12.90
2023-10-29T18:32:24.994Z,12.80
2023-10-29T18:35:13.066Z,12.80
2023-10-29T18:38:03.236Z,12.80
2023-10-29T18:40:56.098Z,12.80
2023-10-29T18:43:44.117Z,12.80
2023-10-29T18:46:33.690Z,12.80
2023-10-29T18:49:21.742Z,12.80
2023-10-29T18:52:10.388Z,13.20
2023-10-29T18:54:58.514Z,13.10
2023-10-29T18:57:46.726Z,13.00
2023-10-29T19:00:35.127Z,12.90
2023-10-29T19:03:24.891Z,12.90
2023-10-29T19:06:14.468Z,12.90
2023-10-29T19:09:02.850Z,12.80
2023-10-29T19:11:51.951Z,12.80
2023-10-29T19:14:43.357Z,12.80
2023-10-29T19:17:31.521Z,12.70
2023-10-29T19:20:21.162Z,12.70
2023-10-29T19:23:09.235Z,12.70
2023-10-29T19:25:58.334Z,12.60
2023-10-29T19:28:47.193Z,12.70
2023-10-29T19:31:36.285Z,12.60
2023-10-29T19:34:25.117Z,12.70
2023-10-29T19:37:15.109Z,12.60
2023-10-29T19:40:05.018Z,12.60
2023-10-29T19:42:54.483Z,12.50
2023-10-29T19:45:42.813Z,12.50
2023-10-29T19:48:31.225Z,12.50
2023-10-29T19:51:19.291Z,12.50
2023-10-29T19:54:11.778Z,12.50
2023-10-29T19:57:01.317Z,12.50
2023-10-29T19:59:49.850Z,12.50
2023-10-29T20:02:38.014Z,12.40
2023-10-29T20:05:28.367Z,12.40
2023-10-29T20:08:16.950Z,12.40
2023-10-29T20:11:09.978Z,12.40
2023-10-29T20:14:00.486Z,12.40
2023-10-29T20:16:48.694Z,12.30
2023-10-29T20:19:36.733Z,12.30
2023-10-29T20:22:24.789Z,12.30
2023-10-29T20:25:13.405Z,12.30
2023-10-29T20:28:02.814Z,12.30
2023-10-29T20:30:51.132Z,12.30
2023-10-29T20:33:39.374Z,12.20
2023-10-29T20:36:27.582Z,12.20
2023-10-29T20:39:15.878Z,12.40
2023-10-29T20:42:04.413Z,12.30
2023-10-29T20:44:53.794Z,12.30
2023-10-29T20:47:42.379Z,12.30
2023-10-29T20:50:30.502Z,12.20
2023-10-29T20:53:18.912Z,12.30
2023-10-29T20:56:08.613Z,12.30
2023-10-29T20:58:56.794Z,12.20
2023-10-29T21:01:46.233Z,12.20
2023-10-29T21:04:34.485Z,12.20
2023-10-29T21:07:22.583Z,12.10
2023-10-29T21:10:11.191Z,12.10
2023-10-29T21:13:00.217Z,12.10
2023-10-29T21:15:49.568Z,12.10
2023-10-29T21:18:39.058Z,12.10
2023-10-29T21:21:27.608Z,12.10
2023-10-29T21:24:16.275Z,12.00
2023-10-29T21:27:04.756Z,12.00
2023-10-29T21:29:53.570Z,12.00
2023-10-29T21:32:44.148Z,12.00
2023-10-29T21:35:35.675Z,12.00
2023-10-29T21:38:24.229Z,12.00
2023-10-29T21:41:13.354Z,12.00
2023-10-29T21:44:02.750Z,12.10
2023-10-29T21:46:50.825Z,12.10
2023-10-29T21:49:40.545Z,12.00
2023-10-29T21:52:30.623Z,12.10
2023-10-29T21:55:18.680Z,12.10
2023-10-29T21:58:09.973Z,12.10
2023-10-29T22:00:58.915Z,12.10
2023-10-29T22:03:47.235Z,12.10
2023-10-29T22:06:35.542Z,12.10
2023-10-29T22:09:26.424Z,12.10
2023-10-29T22:12:14.798Z,12.10
2023-10-29T22:15:03.604Z,12.00
2023-10-29T22:17:51.681Z,12.00
2023-10-29T22:20:39.889Z,12.00
2023-10-29T22:23:28.018Z,12.00
2023-10-29T22:26:17.384Z,12.00
2023-10-29T22:29:06.084Z,12.00
2023-10-29T22:31:54.256Z,12.00
2023-10-29T22:34:42.324Z,12.00
2023-10-29T22:37:30.471Z,12.00
2023-10-29T22:40:18.563Z,12.00
2023-10-29T22:43:08.148Z,11.90
2023-10-29T22:45:56.389Z,12.00
2023-10-29T22:48:44.658Z,11.90
2023-10-29T22:51:32.892Z,12.00
2023-10-29T22:54:21.116Z,12.00
2023-10-29T22:57:09.271Z,11.90
2023-10-29T22:59:58.656Z,12.00
2023-10-29T23:02:46.942Z,11.90
2023-10-29T23:05:35.843Z,11.90
2023-10-29T23:08:24.202Z,12.00
2023-10-29T23:11:16.396Z,12.00
2023-10-29T23:14:04.473Z,12.00
2023-10-29T23:16:54.011Z,12.00
2023-10-29T23:19:42.123Z,12.00
2023-10-29T23:22:30.246Z,12.00
2023-10-29T23:25:18.487Z,12.00
2023-10-29T23:28:06.613Z,12.00
2023-10-29T23:30:54.767Z,12.00
2023-10-29T23:33:44.241Z,12.00
2023-10-29T23:36:32.282Z,12.00
2023-10-29T23:39:21.180Z,12.00
2023-10-29T23:42:09.354Z,11.90
2023-10-29T23:44:57.548Z,11.90
2023-10-29T23:47:45.820Z,11.90
2023-10-29T23:50:35.297Z,12.00
2023-10-29T23:53:23.338Z,11.90
2023-10-29T23:56:11.467Z,11.90
2023-10-29T23:58:59.724Z,11.90
